Ohshima Kazumaru — JD2908 — position and weather

sailwx.info

Track history (hours):
 
Tides and Currents Weather Stations Pressure Air Temp Water Temp Dewpoint Dewpoint Depression Visibility Wind Speed Wind Dir Waves Ship Positions

Ohshima Kazumaru

Last reported at 2014-Oct-21 08:12 UTC. Time now 2014-Oct-24 08:43 UTC.
Position N 35°12' E 139°46'.

Length 69 m; draft 4 m.

Type: Cargo ship. MMSI: 431000925.

Date/timePositionNaut miles runAvg speedWind from/ knotsBaromVisibWave heightAir tempDewpointWater temp
2014-Oct-21 08:12N 35°12' E 139°46'811.8
2014-Oct-21 07:33N 35°20' E 139°43'1111.3
2014-Oct-21 06:34N 35°30' E 139°48'9 0.3
2014-Oct-19 22:23N 35°38' E 139°46'5 6.5
2014-Oct-19 21:33N 35°34' E 139°50'1 0.4
2014-Oct-19 19:32N 35°34' E 139°51'10 9.9
2014-Oct-19 18:32N 35°25' E 139°47'1110.7
2014-Oct-19 17:33N 35°14' E 139°47'  
2014-Oct-16 10:33N 35°15' E 139°46'1110.9
2014-Oct-16 09:33N 35°26' E 139°45'1210.1
2014-Oct-16 08:23N 35°38' E 139°46'  
Track history (hours):
 
Tides and Currents Weather Stations Pressure Air Temp Water Temp Dewpoint Dewpoint Depression Visibility Wind Speed Wind Dir Waves Ship Positions

Ohshima Kazumaru

Last reported at 2014-Oct-21 08:12 UTC. Time now 2014-Oct-24 08:43 UTC.
Position N 35°12' E 139°46'.

Length 69 m; draft 4 m.

Type: Cargo ship. MMSI: 431000925.

Date/timePositionNaut miles runAvg speedWind from/ knotsBaromVisibWave heightAir tempDewpointWater temp
2014-Oct-21 08:12N 35°12' E 139°46'811.8
2014-Oct-21 07:33N 35°20' E 139°43'1111.3
2014-Oct-21 06:34N 35°30' E 139°48'9 0.3
2014-Oct-19 22:23N 35°38' E 139°46'5 6.5
2014-Oct-19 21:33N 35°34' E 139°50'1 0.4
2014-Oct-19 19:32N 35°34' E 139°51'10 9.9
2014-Oct-19 18:32N 35°25' E 139°47'1110.7
2014-Oct-19 17:33N 35°14' E 139°47'  
2014-Oct-16 10:33N 35°15' E 139°46'1110.9
2014-Oct-16 09:33N 35°26' E 139°45'1210.1
2014-Oct-16 08:23N 35°38' E 139°46'  

Dump ship's entire track history